<?xml version="1.0" encoding="UTF-8" standalone="no" ?>
<gpx xmlns="http://www.topografix.com/GPX/1/1" xmlns:xsi="http://www.w3.org/2001/XMLSchema-instance" xsi:schemaLocation="http://www.topografix.com/GPX/1/1 http://www.topografix.com/GPX/1/1/gpx.xsd" version="1.1" creator="VisuGPX - https://www.visugpx.com">
  <metadata>
    <name>Turquie_100points</name>
  </metadata>
  <trk>
    <name><![CDATA[Tour d'Europe: étape 570]]></name>
    <extensions>
      <line xmlns="http://www.topografix.com/GPX/gpx_style/0/2">
        <color>FFFF00</color>
        <width>4</width>
      </line>
    </extensions>
    <trkseg>
      <trkpt lat="36.89114" lon="30.70588">
        <ele>83.074206</ele>
        <time>2022-01-19T06:43:47.684Z</time>
      </trkpt>
      <trkpt lat="36.89128" lon="30.70445">
        <ele>88.157272</ele>
        <time>2022-01-19T06:56:27.348Z</time>
      </trkpt>
      <trkpt lat="36.89105" lon="30.70197">
        <ele>114.825378</ele>
        <time>2022-01-19T06:57:31.338Z</time>
      </trkpt>
      <trkpt lat="36.89018" lon="30.69949">
        <ele>110.876347</ele>
        <time>2022-01-19T06:58:15.333Z</time>
      </trkpt>
      <trkpt lat="36.88955" lon="30.69703">
        <ele>96.584732</ele>
        <time>2022-01-19T06:58:58.355Z</time>
      </trkpt>
      <trkpt lat="36.88906" lon="30.69424">
        <ele>104.296588</ele>
        <time>2022-01-19T07:00:29.329Z</time>
      </trkpt>
      <trkpt lat="36.88803" lon="30.69279">
        <ele>104.134262</ele>
        <time>2022-01-19T07:01:28.339Z</time>
      </trkpt>
      <trkpt lat="36.88609" lon="30.69375">
        <ele>94.417226</ele>
        <time>2022-01-19T07:02:16.351Z</time>
      </trkpt>
      <trkpt lat="36.88534" lon="30.69218">
        <ele>68.625158</ele>
        <time>2022-01-19T07:03:22.342Z</time>
      </trkpt>
      <trkpt lat="36.88523" lon="30.68915">
        <ele>40.469746</ele>
        <time>2022-01-19T07:04:20.329Z</time>
      </trkpt>
      <trkpt lat="36.88499" lon="30.68618">
        <ele>46.271811</ele>
        <time>2022-01-19T07:05:20.356Z</time>
      </trkpt>
      <trkpt lat="36.88492" lon="30.68337">
        <ele>53.024796</ele>
        <time>2022-01-19T07:06:16.367Z</time>
      </trkpt>
      <trkpt lat="36.88494" lon="30.68046">
        <ele>53.23427</ele>
        <time>2022-01-19T07:07:10.331Z</time>
      </trkpt>
      <trkpt lat="36.88496" lon="30.67774">
        <ele>56.88253</ele>
        <time>2022-01-19T07:13:24.346Z</time>
      </trkpt>
      <trkpt lat="36.8842" lon="30.67831">
        <ele>42.6371</ele>
        <time>2022-01-19T07:14:36.358Z</time>
      </trkpt>
      <trkpt lat="36.88382" lon="30.67599">
        <ele>36.39079</ele>
        <time>2022-01-19T07:15:49.357Z</time>
      </trkpt>
      <trkpt lat="36.88267" lon="30.67374">
        <ele>29.629494</ele>
        <time>2022-01-19T07:16:51.343Z</time>
      </trkpt>
      <trkpt lat="36.8815" lon="30.67112">
        <ele>33.901043</ele>
        <time>2022-01-19T07:17:54.363Z</time>
      </trkpt>
      <trkpt lat="36.88044" lon="30.66851">
        <ele>32.269595</ele>
        <time>2022-01-19T07:18:54.372Z</time>
      </trkpt>
      <trkpt lat="36.87922" lon="30.6662">
        <ele>28.776718</ele>
        <time>2022-01-19T07:22:18.359Z</time>
      </trkpt>
      <trkpt lat="36.87783" lon="30.66393">
        <ele>29.767802</ele>
        <time>2022-01-19T07:23:18.367Z</time>
      </trkpt>
      <trkpt lat="36.8771" lon="30.66176">
        <ele>29.146908</ele>
        <time>2022-01-19T07:24:19.358Z</time>
      </trkpt>
      <trkpt lat="36.87583" lon="30.65955">
        <ele>30.648515</ele>
        <time>2022-01-19T07:25:32.361Z</time>
      </trkpt>
      <trkpt lat="36.8742" lon="30.65762">
        <ele>30.128012</ele>
        <time>2022-01-19T07:26:32.402Z</time>
      </trkpt>
      <trkpt lat="36.87276" lon="30.65534">
        <ele>33.60643</ele>
        <time>2022-01-19T07:27:32.376Z</time>
      </trkpt>
      <trkpt lat="36.87125" lon="30.65304">
        <ele>34.776555</ele>
        <time>2022-01-19T07:28:32.368Z</time>
      </trkpt>
      <trkpt lat="36.86978" lon="30.65076">
        <ele>30.952294</ele>
        <time>2022-01-19T07:29:35.363Z</time>
      </trkpt>
      <trkpt lat="36.8683" lon="30.6485">
        <ele>33.096074</ele>
        <time>2022-01-19T07:30:32.374Z</time>
      </trkpt>
      <trkpt lat="36.86685" lon="30.64655">
        <ele>31.673901</ele>
        <time>2022-01-19T07:40:59.381Z</time>
      </trkpt>
      <trkpt lat="36.86616" lon="30.64523">
        <ele>32.102893</ele>
        <time>2022-01-19T07:54:21.359Z</time>
      </trkpt>
      <trkpt lat="36.86488" lon="30.6433">
        <ele>32.773269</ele>
        <time>2022-01-19T07:55:21.372Z</time>
      </trkpt>
      <trkpt lat="36.86342" lon="30.64102">
        <ele>34.571566</ele>
        <time>2022-01-19T07:56:24.354Z</time>
      </trkpt>
      <trkpt lat="36.86204" lon="30.63863">
        <ele>36.870672</ele>
        <time>2022-01-19T07:57:22.371Z</time>
      </trkpt>
      <trkpt lat="36.86075" lon="30.63626">
        <ele>37.864899</ele>
        <time>2022-01-19T07:58:20.396Z</time>
      </trkpt>
      <trkpt lat="36.85929" lon="30.63393">
        <ele>34.066192</ele>
        <time>2022-01-19T07:59:18.396Z</time>
      </trkpt>
      <trkpt lat="36.85763" lon="30.63177">
        <ele>30.49008</ele>
        <time>2022-01-19T08:00:18.371Z</time>
      </trkpt>
      <trkpt lat="36.85609" lon="30.62975">
        <ele>32.443409</ele>
        <time>2022-01-19T08:01:18.383Z</time>
      </trkpt>
      <trkpt lat="36.85449" lon="30.62774">
        <ele>32.011091</ele>
        <time>2022-01-19T08:02:18.378Z</time>
      </trkpt>
      <trkpt lat="36.85291" lon="30.62577">
        <ele>26.683512</ele>
        <time>2022-01-19T08:03:17.387Z</time>
      </trkpt>
      <trkpt lat="36.85151" lon="30.62363">
        <ele>21.922794</ele>
        <time>2022-01-19T08:04:22.359Z</time>
      </trkpt>
      <trkpt lat="36.8505" lon="30.6215">
        <ele>25.434982</ele>
        <time>2022-01-19T08:05:28.373Z</time>
      </trkpt>
      <trkpt lat="36.85032" lon="30.61951">
        <ele>42.455651</ele>
        <time>2022-01-19T08:07:08.363Z</time>
      </trkpt>
      <trkpt lat="36.84852" lon="30.61754">
        <ele>46.663811</ele>
        <time>2022-01-19T08:08:10.379Z</time>
      </trkpt>
      <trkpt lat="36.84801" lon="30.61468">
        <ele>31.853574</ele>
        <time>2022-01-19T08:09:10.389Z</time>
      </trkpt>
      <trkpt lat="36.84738" lon="30.61257">
        <ele>30.99459</ele>
        <time>2022-01-19T08:10:25.384Z</time>
      </trkpt>
      <trkpt lat="36.84707" lon="30.60982">
        <ele>31.262441</ele>
        <time>2022-01-19T08:11:41.369Z</time>
      </trkpt>
      <trkpt lat="36.84686" lon="30.60721">
        <ele>31.671326</ele>
        <time>2022-01-19T08:12:41.364Z</time>
      </trkpt>
      <trkpt lat="36.84669" lon="30.60464">
        <ele>35.895331</ele>
        <time>2022-01-19T08:13:41.383Z</time>
      </trkpt>
      <trkpt lat="36.84766" lon="30.6025">
        <ele>33.583562</ele>
        <time>2022-01-19T08:15:05.364Z</time>
      </trkpt>
      <trkpt lat="36.84802" lon="30.59995">
        <ele>30.441478</ele>
        <time>2022-01-19T08:16:32.375Z</time>
      </trkpt>
      <trkpt lat="36.8456" lon="30.59947">
        <ele>27.668661</ele>
        <time>2022-01-19T08:17:12.379Z</time>
      </trkpt>
      <trkpt lat="36.84359" lon="30.5985">
        <ele>33.667647</ele>
        <time>2022-01-19T08:17:52.386Z</time>
      </trkpt>
      <trkpt lat="36.84146" lon="30.59729">
        <ele>33.391935</ele>
        <time>2022-01-19T08:18:32.363Z</time>
      </trkpt>
      <trkpt lat="36.83974" lon="30.59608">
        <ele>37.371922</ele>
        <time>2022-01-19T08:19:21.365Z</time>
      </trkpt>
      <trkpt lat="36.83764" lon="30.59554">
        <ele>37.732499</ele>
        <time>2022-01-19T08:20:11.380Z</time>
      </trkpt>
      <trkpt lat="36.83547" lon="30.59525">
        <ele>37.341149</ele>
        <time>2022-01-19T08:20:52.374Z</time>
      </trkpt>
      <trkpt lat="36.83316" lon="30.59523">
        <ele>33.836433</ele>
        <time>2022-01-19T08:21:32.370Z</time>
      </trkpt>
      <trkpt lat="36.8311" lon="30.59521">
        <ele>35.575272</ele>
        <time>2022-01-19T08:22:12.375Z</time>
      </trkpt>
      <trkpt lat="36.82877" lon="30.59511">
        <ele>40.623943</ele>
        <time>2022-01-19T08:23:05.363Z</time>
      </trkpt>
      <trkpt lat="36.82673" lon="30.59487">
        <ele>51.828813</ele>
        <time>2022-01-19T08:24:18.408Z</time>
      </trkpt>
      <trkpt lat="36.82482" lon="30.59419">
        <ele>53.257591</ele>
        <time>2022-01-19T08:25:49.370Z</time>
      </trkpt>
      <trkpt lat="36.8227" lon="30.59351">
        <ele>58.837723</ele>
        <time>2022-01-19T08:26:56.371Z</time>
      </trkpt>
      <trkpt lat="36.82053" lon="30.59313">
        <ele>54.93791</ele>
        <time>2022-01-19T08:27:39.373Z</time>
      </trkpt>
      <trkpt lat="36.81853" lon="30.59205">
        <ele>55.04435</ele>
        <time>2022-01-19T08:28:59.355Z</time>
      </trkpt>
      <trkpt lat="36.81689" lon="30.59068">
        <ele>63.942613</ele>
        <time>2022-01-19T08:30:21.374Z</time>
      </trkpt>
      <trkpt lat="36.81547" lon="30.58891">
        <ele>63.531823</ele>
        <time>2022-01-19T08:31:51.377Z</time>
      </trkpt>
      <trkpt lat="36.8139" lon="30.58721">
        <ele>65.136403</ele>
        <time>2022-01-19T08:32:54.367Z</time>
      </trkpt>
      <trkpt lat="36.81139" lon="30.58632">
        <ele>59.887883</ele>
        <time>2022-01-19T08:33:34.383Z</time>
      </trkpt>
      <trkpt lat="36.80962" lon="30.58381">
        <ele>46.471244</ele>
        <time>2022-01-19T08:34:03.366Z</time>
      </trkpt>
      <trkpt lat="36.80739" lon="30.58344">
        <ele>32.520647</ele>
        <time>2022-01-19T08:34:38.411Z</time>
      </trkpt>
      <trkpt lat="36.80566" lon="30.58189">
        <ele>34.880656</ele>
        <time>2022-01-19T08:35:21.376Z</time>
      </trkpt>
      <trkpt lat="36.8041" lon="30.5802">
        <ele>43.756571</ele>
        <time>2022-01-19T08:36:29.371Z</time>
      </trkpt>
      <trkpt lat="36.80197" lon="30.57888">
        <ele>38.349967</ele>
        <time>2022-01-19T08:37:14.382Z</time>
      </trkpt>
      <trkpt lat="36.80072" lon="30.57636">
        <ele>33.965599</ele>
        <time>2022-01-19T08:37:42.397Z</time>
      </trkpt>
      <trkpt lat="36.7999" lon="30.57389">
        <ele>37.647286</ele>
        <time>2022-01-19T08:38:49.382Z</time>
      </trkpt>
      <trkpt lat="36.79822" lon="30.57208">
        <ele>29.272642</ele>
        <time>2022-01-19T08:39:40.363Z</time>
      </trkpt>
      <trkpt lat="36.79561" lon="30.57241">
        <ele>26.133082</ele>
        <time>2022-01-19T08:40:20.410Z</time>
      </trkpt>
      <trkpt lat="36.79351" lon="30.57328">
        <ele>30.153131</ele>
        <time>2022-01-19T08:41:15.387Z</time>
      </trkpt>
      <trkpt lat="36.79139" lon="30.57355">
        <ele>37.952087</ele>
        <time>2022-01-19T08:42:27.394Z</time>
      </trkpt>
      <trkpt lat="36.78935" lon="30.57334">
        <ele>38.268054</ele>
        <time>2022-01-19T08:43:16.417Z</time>
      </trkpt>
      <trkpt lat="36.78698" lon="30.57252">
        <ele>31.767356</ele>
        <time>2022-01-19T08:43:56.415Z</time>
      </trkpt>
      <trkpt lat="36.78518" lon="30.5703">
        <ele>23.89909</ele>
        <time>2022-01-19T08:44:38.379Z</time>
      </trkpt>
      <trkpt lat="36.78382" lon="30.56816">
        <ele>33.095095</ele>
        <time>2022-01-19T08:45:37.381Z</time>
      </trkpt>
      <trkpt lat="36.78229" lon="30.56657">
        <ele>35.390552</ele>
        <time>2022-01-19T08:46:37.380Z</time>
      </trkpt>
      <trkpt lat="36.78028" lon="30.56739">
        <ele>33.694581</ele>
        <time>2022-01-19T08:50:14.369Z</time>
      </trkpt>
      <trkpt lat="36.76969" lon="30.57208">
        <ele>63.878786</ele>
        <time>2022-01-19T08:56:51.378Z</time>
      </trkpt>
      <trkpt lat="36.76661" lon="30.57062">
        <ele>39.821837</ele>
        <time>2022-01-19T08:57:33.435Z</time>
      </trkpt>
      <trkpt lat="36.7625" lon="30.56934">
        <ele>32.615596</ele>
        <time>2022-01-19T08:58:47.421Z</time>
      </trkpt>
      <trkpt lat="36.76022" lon="30.56937">
        <ele>38.632781</ele>
        <time>2022-01-19T08:59:44.379Z</time>
      </trkpt>
      <trkpt lat="36.75803" lon="30.56939">
        <ele>35.233568</ele>
        <time>2022-01-19T09:00:39.398Z</time>
      </trkpt>
      <trkpt lat="36.75604" lon="30.56851">
        <ele>31.525629</ele>
        <time>2022-01-19T09:01:33.382Z</time>
      </trkpt>
      <trkpt lat="36.75381" lon="30.5676">
        <ele>30.671332</ele>
        <time>2022-01-19T09:02:24.391Z</time>
      </trkpt>
      <trkpt lat="36.75175" lon="30.56682">
        <ele>34.689376</ele>
        <time>2022-01-19T09:03:28.393Z</time>
      </trkpt>
      <trkpt lat="36.74212" lon="30.55962">
        <ele>40.897677</ele>
        <time>2022-01-19T09:07:57.380Z</time>
      </trkpt>
      <trkpt lat="36.74016" lon="30.55819">
        <ele>30.275222</ele>
        <time>2022-01-19T09:08:49.379Z</time>
      </trkpt>
      <trkpt lat="36.73814" lon="30.55676">
        <ele>29.38345</ele>
        <time>2022-01-19T09:09:50.388Z</time>
      </trkpt>
      <trkpt lat="36.7365" lon="30.5558">
        <ele>28.881212</ele>
        <time>2022-01-19T09:11:40.391Z</time>
      </trkpt>
      <trkpt lat="36.73588" lon="30.55846">
        <ele>33.741708</ele>
        <time>2022-01-19T09:13:18.391Z</time>
      </trkpt>
      <trkpt lat="36.73522" lon="30.5605">
        <ele>35.39973</ele>
        <time>2022-01-19T09:14:07.384Z</time>
      </trkpt>
      <trkpt lat="36.73393" lon="30.56081">
        <ele>35.477692</ele>
        <time>2022-01-19T09:16:43.374Z</time>
      </trkpt>
      <trkpt lat="36.73248" lon="30.56277">
        <ele>30.002658</ele>
        <time>2022-01-19T09:17:47.405Z</time>
      </trkpt>
      <trkpt lat="36.73075" lon="30.56235">
        <ele>22.360146</ele>
        <time>2022-01-19T09:18:51.383Z</time>
      </trkpt>
      <trkpt lat="36.72874" lon="30.56104">
        <ele>20.973836</ele>
        <time>2022-01-19T09:19:45.381Z</time>
      </trkpt>
      <trkpt lat="36.72683" lon="30.55978">
        <ele>29.952044</ele>
        <time>2022-01-19T09:20:36.383Z</time>
      </trkpt>
      <trkpt lat="36.72449" lon="30.56107">
        <ele>42.808087</ele>
        <time>2022-01-19T09:21:38.383Z</time>
      </trkpt>
      <trkpt lat="36.72207" lon="30.56155">
        <ele>47.263013</ele>
        <time>2022-01-19T09:22:38.378Z</time>
      </trkpt>
      <trkpt lat="36.72004" lon="30.56238">
        <ele>38.870918</ele>
        <time>2022-01-19T09:23:27.382Z</time>
      </trkpt>
      <trkpt lat="36.71764" lon="30.56296">
        <ele>39.138319</ele>
        <time>2022-01-19T09:31:21.396Z</time>
      </trkpt>
      <trkpt lat="36.71561" lon="30.56437">
        <ele>37.84041</ele>
        <time>2022-01-19T09:32:20.376Z</time>
      </trkpt>
      <trkpt lat="36.7132" lon="30.56497">
        <ele>31.047969</ele>
        <time>2022-01-19T09:33:18.396Z</time>
      </trkpt>
      <trkpt lat="36.7111" lon="30.56549">
        <ele>30.287565</ele>
        <time>2022-01-19T09:34:06.391Z</time>
      </trkpt>
      <trkpt lat="36.70898" lon="30.56596">
        <ele>31.890252</ele>
        <time>2022-01-19T09:34:56.385Z</time>
      </trkpt>
      <trkpt lat="36.7068" lon="30.56655">
        <ele>30.416494</ele>
        <time>2022-01-19T09:35:46.390Z</time>
      </trkpt>
      <trkpt lat="36.70477" lon="30.56793">
        <ele>32.659919</ele>
        <time>2022-01-19T09:36:41.395Z</time>
      </trkpt>
      <trkpt lat="36.70291" lon="30.56933">
        <ele>34.683974</ele>
        <time>2022-01-19T09:37:47.400Z</time>
      </trkpt>
      <trkpt lat="36.70067" lon="30.5696">
        <ele>31.969408</ele>
        <time>2022-01-19T09:38:36.400Z</time>
      </trkpt>
      <trkpt lat="36.69833" lon="30.56963">
        <ele>31.202393</ele>
        <time>2022-01-19T09:39:33.403Z</time>
      </trkpt>
      <trkpt lat="36.6962" lon="30.56976">
        <ele>33.700758</ele>
        <time>2022-01-19T09:40:20.395Z</time>
      </trkpt>
      <trkpt lat="36.69377" lon="30.57043">
        <ele>31.163434</ele>
        <time>2022-01-19T09:41:23.402Z</time>
      </trkpt>
      <trkpt lat="36.6915" lon="30.57073">
        <ele>33.152359</ele>
        <time>2022-01-19T09:42:22.390Z</time>
      </trkpt>
      <trkpt lat="36.68933" lon="30.57037">
        <ele>38.796908</ele>
        <time>2022-01-19T09:43:23.388Z</time>
      </trkpt>
      <trkpt lat="36.68725" lon="30.57025">
        <ele>36.747428</ele>
        <time>2022-01-19T09:44:25.384Z</time>
      </trkpt>
      <trkpt lat="36.685" lon="30.5703">
        <ele>35.515502</ele>
        <time>2022-01-19T09:45:39.398Z</time>
      </trkpt>
      <trkpt lat="36.68269" lon="30.56996">
        <ele>33.453826</ele>
        <time>2022-01-19T09:46:30.400Z</time>
      </trkpt>
      <trkpt lat="36.68056" lon="30.56997">
        <ele>30.737548</ele>
        <time>2022-01-19T09:47:25.404Z</time>
      </trkpt>
      <trkpt lat="36.67904" lon="30.56858">
        <ele>32.750375</ele>
        <time>2022-01-19T09:48:29.409Z</time>
      </trkpt>
      <trkpt lat="36.67839" lon="30.56842">
        <ele>34.064659</ele>
        <time>2022-01-19T09:49:58.396Z</time>
      </trkpt>
      <trkpt lat="36.67621" lon="30.56726">
        <ele>33.862119</ele>
        <time>2022-01-19T09:51:01.408Z</time>
      </trkpt>
      <trkpt lat="36.67485" lon="30.5651">
        <ele>38.898942</ele>
        <time>2022-01-19T09:52:01.408Z</time>
      </trkpt>
      <trkpt lat="36.6737" lon="30.56331">
        <ele>39.739561</ele>
        <time>2022-01-19T09:53:28.413Z</time>
      </trkpt>
      <trkpt lat="36.67153" lon="30.56298">
        <ele>36.605506</ele>
        <time>2022-01-19T09:54:24.396Z</time>
      </trkpt>
      <trkpt lat="36.66946" lon="30.56284">
        <ele>36.37863</ele>
        <time>2022-01-19T09:55:07.433Z</time>
      </trkpt>
      <trkpt lat="36.66732" lon="30.56212">
        <ele>33.644512</ele>
        <time>2022-01-19T09:55:58.403Z</time>
      </trkpt>
      <trkpt lat="36.66523" lon="30.56106">
        <ele>29.317607</ele>
        <time>2022-01-19T09:56:48.410Z</time>
      </trkpt>
      <trkpt lat="36.66319" lon="30.55982">
        <ele>29.321673</ele>
        <time>2022-01-19T09:57:39.403Z</time>
      </trkpt>
      <trkpt lat="36.66141" lon="30.55821">
        <ele>30.507688</ele>
        <time>2022-01-19T09:58:31.410Z</time>
      </trkpt>
      <trkpt lat="36.6598" lon="30.55609">
        <ele>31.469203</ele>
        <time>2022-01-19T09:59:34.398Z</time>
      </trkpt>
      <trkpt lat="36.65769" lon="30.5554">
        <ele>36.245568</ele>
        <time>2022-01-19T10:00:27.399Z</time>
      </trkpt>
      <trkpt lat="36.6555" lon="30.55467">
        <ele>31.978901</ele>
        <time>2022-01-19T10:01:20.405Z</time>
      </trkpt>
      <trkpt lat="36.65352" lon="30.55339">
        <ele>34.06875</ele>
        <time>2022-01-19T10:02:24.415Z</time>
      </trkpt>
      <trkpt lat="36.65175" lon="30.552">
        <ele>37.853412</ele>
        <time>2022-01-19T10:03:25.408Z</time>
      </trkpt>
      <trkpt lat="36.64944" lon="30.55113">
        <ele>34.515897</ele>
        <time>2022-01-19T10:04:20.398Z</time>
      </trkpt>
      <trkpt lat="36.64728" lon="30.5507">
        <ele>32.008516</ele>
        <time>2022-01-19T10:05:20.415Z</time>
      </trkpt>
      <trkpt lat="36.64571" lon="30.54914">
        <ele>35.535206</ele>
        <time>2022-01-19T10:06:24.404Z</time>
      </trkpt>
      <trkpt lat="36.64403" lon="30.54767">
        <ele>41.459861</ele>
        <time>2022-01-19T10:07:39.412Z</time>
      </trkpt>
      <trkpt lat="36.64242" lon="30.54706">
        <ele>47.73223</ele>
        <time>2022-01-19T10:09:35.409Z</time>
      </trkpt>
      <trkpt lat="36.64036" lon="30.54818">
        <ele>44.827866</ele>
        <time>2022-01-19T10:10:27.406Z</time>
      </trkpt>
      <trkpt lat="36.63835" lon="30.5491">
        <ele>43.894947</ele>
        <time>2022-01-19T10:11:07.362Z</time>
      </trkpt>
      <trkpt lat="36.63629" lon="30.5503">
        <ele>35.640816</ele>
        <time>2022-01-19T10:11:47.415Z</time>
      </trkpt>
      <trkpt lat="36.63472" lon="30.55217">
        <ele>33.393361</ele>
        <time>2022-01-19T10:12:27.400Z</time>
      </trkpt>
      <trkpt lat="36.63282" lon="30.55399">
        <ele>35.297534</ele>
        <time>2022-01-19T10:13:13.400Z</time>
      </trkpt>
      <trkpt lat="36.63081" lon="30.55475">
        <ele>46.397247</ele>
        <time>2022-01-19T10:14:23.396Z</time>
      </trkpt>
      <trkpt lat="36.62869" lon="30.55468">
        <ele>42.155949</ele>
        <time>2022-01-19T10:15:17.401Z</time>
      </trkpt>
      <trkpt lat="36.62634" lon="30.55372">
        <ele>34.349312</ele>
        <time>2022-01-19T10:15:58.380Z</time>
      </trkpt>
      <trkpt lat="36.62418" lon="30.55269">
        <ele>35.867818</ele>
        <time>2022-01-19T10:16:49.383Z</time>
      </trkpt>
      <trkpt lat="36.62225" lon="30.5521">
        <ele>35.39524</ele>
        <time>2022-01-19T10:34:17.409Z</time>
      </trkpt>
      <trkpt lat="36.62003" lon="30.55269">
        <ele>29.26388</ele>
        <time>2022-01-19T10:35:08.402Z</time>
      </trkpt>
      <trkpt lat="36.61845" lon="30.55451">
        <ele>25.56766</ele>
        <time>2022-01-19T10:36:00.396Z</time>
      </trkpt>
      <trkpt lat="36.61643" lon="30.55534">
        <ele>26.058072</ele>
        <time>2022-01-19T10:36:40.408Z</time>
      </trkpt>
      <trkpt lat="36.61394" lon="30.55624">
        <ele>33.121677</ele>
        <time>2022-01-19T10:37:40.411Z</time>
      </trkpt>
      <trkpt lat="36.61173" lon="30.55704">
        <ele>37.504331</ele>
        <time>2022-01-19T10:38:33.398Z</time>
      </trkpt>
      <trkpt lat="36.60935" lon="30.55778">
        <ele>38.495746</ele>
        <time>2022-01-19T10:39:31.398Z</time>
      </trkpt>
      <trkpt lat="36.60711" lon="30.55841">
        <ele>36.566684</ele>
        <time>2022-01-19T10:40:23.409Z</time>
      </trkpt>
      <trkpt lat="36.60471" lon="30.55906">
        <ele>32.160869</ele>
        <time>2022-01-19T10:41:22.422Z</time>
      </trkpt>
      <trkpt lat="36.6025" lon="30.55929">
        <ele>34.701042</ele>
        <time>2022-01-19T10:42:28.406Z</time>
      </trkpt>
      <trkpt lat="36.6013" lon="30.55788">
        <ele>35.346214</ele>
        <time>2022-01-19T10:47:31.410Z</time>
      </trkpt>
      <trkpt lat="36.5992" lon="30.55722">
        <ele>33.151736</ele>
        <time>2022-01-19T10:48:25.398Z</time>
      </trkpt>
      <trkpt lat="36.59877" lon="30.55586">
        <ele>40.386682</ele>
        <time>2022-01-19T10:49:56.398Z</time>
      </trkpt>
      <trkpt lat="36.59805" lon="30.55322">
        <ele>44.078084</ele>
        <time>2022-01-19T10:50:56.396Z</time>
      </trkpt>
      <trkpt lat="36.59708" lon="30.55071">
        <ele>48.255842</ele>
        <time>2022-01-19T10:51:59.387Z</time>
      </trkpt>
      <trkpt lat="36.59636" lon="30.54832">
        <ele>49.796948</ele>
        <time>2022-01-19T10:53:00.389Z</time>
      </trkpt>
      <trkpt lat="36.59558" lon="30.54603">
        <ele>51.623904</ele>
        <time>2022-01-19T10:54:02.427Z</time>
      </trkpt>
      <trkpt lat="36.59432" lon="30.54412">
        <ele>54.580976</ele>
        <time>2022-01-19T10:55:03.395Z</time>
      </trkpt>
      <trkpt lat="36.59271" lon="30.54247">
        <ele>60.134088</ele>
        <time>2022-01-19T10:56:08.387Z</time>
      </trkpt>
      <trkpt lat="36.5919" lon="30.54017">
        <ele>63.426754</ele>
        <time>2022-01-19T10:57:33.396Z</time>
      </trkpt>
      <trkpt lat="36.59073" lon="30.53804">
        <ele>62.918009</ele>
        <time>2022-01-19T10:58:28.379Z</time>
      </trkpt>
      <trkpt lat="36.58878" lon="30.5371">
        <ele>65.166852</ele>
        <time>2022-01-19T10:59:30.434Z</time>
      </trkpt>
      <trkpt lat="36.58645" lon="30.53679">
        <ele>65.036746</ele>
        <time>2022-01-19T11:00:30.410Z</time>
      </trkpt>
      <trkpt lat="36.585" lon="30.53465">
        <ele>65.666906</ele>
        <time>2022-01-19T11:01:33.427Z</time>
      </trkpt>
      <trkpt lat="36.58384" lon="30.53257">
        <ele>69.319155</ele>
        <time>2022-01-19T11:02:38.409Z</time>
      </trkpt>
      <trkpt lat="36.58278" lon="30.53277">
        <ele>70.272069</ele>
        <time>2022-01-19T11:03:36.409Z</time>
      </trkpt>
      <trkpt lat="36.58172" lon="30.53489">
        <ele>66.52763</ele>
        <time>2022-01-19T11:04:17.443Z</time>
      </trkpt>
      <trkpt lat="36.58056" lon="30.53737">
        <ele>61.769857</ele>
        <time>2022-01-19T11:05:09.418Z</time>
      </trkpt>
      <trkpt lat="36.57944" lon="30.53955">
        <ele>54.435951</ele>
        <time>2022-01-19T11:05:49.423Z</time>
      </trkpt>
      <trkpt lat="36.57843" lon="30.542">
        <ele>53.338683</ele>
        <time>2022-01-19T11:06:33.428Z</time>
      </trkpt>
      <trkpt lat="36.57777" lon="30.54456">
        <ele>52.959022</ele>
        <time>2022-01-19T11:07:15.419Z</time>
      </trkpt>
      <trkpt lat="36.5771" lon="30.54727">
        <ele>48.987372</ele>
        <time>2022-01-19T11:07:59.412Z</time>
      </trkpt>
      <trkpt lat="36.57638" lon="30.54997">
        <ele>47.497311</ele>
        <time>2022-01-19T11:08:48.416Z</time>
      </trkpt>
      <trkpt lat="36.57534" lon="30.55226">
        <ele>49.795457</ele>
        <time>2022-01-19T11:09:29.428Z</time>
      </trkpt>
      <trkpt lat="36.57342" lon="30.55271">
        <ele>41.237381</ele>
        <time>2022-01-19T11:10:15.398Z</time>
      </trkpt>
      <trkpt lat="36.57209" lon="30.55451">
        <ele>40.762888</ele>
        <time>2022-01-19T11:11:00.406Z</time>
      </trkpt>
      <trkpt lat="36.57067" lon="30.55649">
        <ele>42.926969</ele>
        <time>2022-01-19T11:11:44.430Z</time>
      </trkpt>
      <trkpt lat="36.56856" lon="30.55629">
        <ele>38.270543</ele>
        <time>2022-01-19T11:12:27.419Z</time>
      </trkpt>
      <trkpt lat="36.56697" lon="30.5576">
        <ele>38.115738</ele>
        <time>2022-01-19T11:13:07.431Z</time>
      </trkpt>
      <trkpt lat="36.56514" lon="30.55856">
        <ele>37.555613</ele>
        <time>2022-01-19T11:13:49.420Z</time>
      </trkpt>
      <trkpt lat="36.56305" lon="30.55939">
        <ele>40.050372</ele>
        <time>2022-01-19T11:14:29.398Z</time>
      </trkpt>
      <trkpt lat="36.5621" lon="30.56133">
        <ele>36.971462</ele>
        <time>2022-01-19T11:15:19.411Z</time>
      </trkpt>
      <trkpt lat="36.55999" lon="30.56186">
        <ele>34.159291</ele>
        <time>2022-01-19T11:16:01.439Z</time>
      </trkpt>
      <trkpt lat="36.55832" lon="30.56342">
        <ele>33.091656</ele>
        <time>2022-01-19T11:16:41.426Z</time>
      </trkpt>
      <trkpt lat="36.55655" lon="30.56367">
        <ele>32.09758</ele>
        <time>2022-01-19T11:17:23.437Z</time>
      </trkpt>
      <trkpt lat="36.55478" lon="30.56258">
        <ele>33.995933</ele>
        <time>2022-01-19T11:18:03.423Z</time>
      </trkpt>
      <trkpt lat="36.55299" lon="30.56067">
        <ele>32.300135</ele>
        <time>2022-01-19T11:18:56.400Z</time>
      </trkpt>
      <trkpt lat="36.5519" lon="30.55836">
        <ele>31.344146</ele>
        <time>2022-01-19T11:19:44.425Z</time>
      </trkpt>
      <trkpt lat="36.55034" lon="30.55677">
        <ele>32.173826</ele>
        <time>2022-01-19T11:20:28.417Z</time>
      </trkpt>
      <trkpt lat="36.54816" lon="30.55639">
        <ele>27.926372</ele>
        <time>2022-01-19T11:21:20.427Z</time>
      </trkpt>
      <trkpt lat="36.54678" lon="30.55833">
        <ele>26.282613</ele>
        <time>2022-01-19T11:22:14.457Z</time>
      </trkpt>
      <trkpt lat="36.54475" lon="30.55763">
        <ele>35.293066</ele>
        <time>2022-01-19T11:23:05.467Z</time>
      </trkpt>
      <trkpt lat="36.54319" lon="30.55601">
        <ele>43.741757</ele>
        <time>2022-01-19T11:23:49.430Z</time>
      </trkpt>
      <trkpt lat="36.54199" lon="30.55353">
        <ele>32.757028</ele>
        <time>2022-01-19T11:24:47.431Z</time>
      </trkpt>
      <trkpt lat="36.54058" lon="30.55198">
        <ele>29.993101</ele>
        <time>2022-01-19T11:27:16.412Z</time>
      </trkpt>
      <trkpt lat="36.54207" lon="30.55383">
        <ele>26.365498</ele>
        <time>2022-01-19T11:28:40.406Z</time>
      </trkpt>
      <trkpt lat="36.54321" lon="30.55622">
        <ele>28.587443</ele>
        <time>2022-01-19T11:29:43.416Z</time>
      </trkpt>
      <trkpt lat="36.54491" lon="30.5579">
        <ele>30.215807</ele>
        <time>2022-01-19T11:30:43.440Z</time>
      </trkpt>
      <trkpt lat="36.54695" lon="30.55825">
        <ele>31.895325</ele>
        <time>2022-01-19T11:31:47.422Z</time>
      </trkpt>
      <trkpt lat="36.54768" lon="30.556">
        <ele>33.809163</ele>
        <time>2022-01-19T11:32:48.415Z</time>
      </trkpt>
      <trkpt lat="36.5483" lon="30.5534">
        <ele>41.462015</ele>
        <time>2022-01-19T11:33:52.414Z</time>
      </trkpt>
      <trkpt lat="36.54831" lon="30.5509">
        <ele>38.231351</ele>
        <time>2022-01-19T11:35:01.457Z</time>
      </trkpt>
      <trkpt lat="36.5463" lon="30.55032">
        <ele>28.826669</ele>
        <time>2022-01-19T11:35:46.398Z</time>
      </trkpt>
      <trkpt lat="36.54463" lon="30.55178">
        <ele>30.021378</ele>
        <time>2022-01-19T11:36:34.412Z</time>
      </trkpt>
      <trkpt lat="36.54296" lon="30.55368">
        <ele>33.214367</ele>
        <time>2022-01-19T11:37:26.457Z</time>
      </trkpt>
      <trkpt lat="36.54119" lon="30.55201">
        <ele>36.142685</ele>
        <time>2022-01-19T11:38:06.449Z</time>
      </trkpt>
      <trkpt lat="36.53965" lon="30.5505">
        <ele>40.530476</ele>
        <time>2022-01-19T11:39:08.409Z</time>
      </trkpt>
      <trkpt lat="36.53818" lon="30.5489">
        <ele>40.640294</ele>
        <time>2022-01-19T11:39:57.418Z</time>
      </trkpt>
      <trkpt lat="36.53627" lon="30.54952">
        <ele>43.924134</ele>
        <time>2022-01-19T11:40:40.410Z</time>
      </trkpt>
      <trkpt lat="36.53507" lon="30.55171">
        <ele>59.286192</ele>
        <time>2022-01-19T11:42:05.418Z</time>
      </trkpt>
      <trkpt lat="36.53415" lon="30.5538">
        <ele>80.406042</ele>
        <time>2022-01-19T11:44:03.415Z</time>
      </trkpt>
      <trkpt lat="36.5323" lon="30.5544">
        <ele>80.196483</ele>
        <time>2022-01-19T11:45:47.428Z</time>
      </trkpt>
      <trkpt lat="36.53101" lon="30.55263">
        <ele>87.968452</ele>
        <time>2022-01-19T11:47:21.417Z</time>
      </trkpt>
      <trkpt lat="36.53005" lon="30.55026">
        <ele>96.424487</ele>
        <time>2022-01-19T11:49:04.407Z</time>
      </trkpt>
      <trkpt lat="36.52994" lon="30.54785">
        <ele>98.422859</ele>
        <time>2022-01-19T11:50:47.416Z</time>
      </trkpt>
      <trkpt lat="36.53117" lon="30.54538">
        <ele>92.828106</ele>
        <time>2022-01-19T11:51:21.415Z</time>
      </trkpt>
      <trkpt lat="36.5319" lon="30.54215">
        <ele>85.493909</ele>
        <time>2022-01-19T11:51:57.455Z</time>
      </trkpt>
      <trkpt lat="36.53131" lon="30.53907">
        <ele>77.534259</ele>
        <time>2022-01-19T11:52:37.414Z</time>
      </trkpt>
      <trkpt lat="36.5316" lon="30.53515">
        <ele>67.391634</ele>
        <time>2022-01-19T11:53:19.463Z</time>
      </trkpt>
      <trkpt lat="36.53086" lon="30.53203">
        <ele>54.443695</ele>
        <time>2022-01-19T11:53:59.415Z</time>
      </trkpt>
      <trkpt lat="36.52939" lon="30.53017">
        <ele>41.364322</ele>
        <time>2022-01-19T11:54:39.415Z</time>
      </trkpt>
      <trkpt lat="36.52743" lon="30.52783">
        <ele>36.764893</ele>
        <time>2022-01-19T11:55:19.408Z</time>
      </trkpt>
      <trkpt lat="36.52557" lon="30.52646">
        <ele>32.110173</ele>
        <time>2022-01-19T11:55:59.417Z</time>
      </trkpt>
      <trkpt lat="36.52319" lon="30.52614">
        <ele>33.884288</ele>
        <time>2022-01-19T11:56:41.474Z</time>
      </trkpt>
      <trkpt lat="36.52037" lon="30.52668">
        <ele>29.528494</ele>
        <time>2022-01-19T11:57:21.465Z</time>
      </trkpt>
      <trkpt lat="36.51832" lon="30.52721">
        <ele>32.964781</ele>
        <time>2022-01-19T12:00:47.463Z</time>
      </trkpt>
      <trkpt lat="36.51644" lon="30.52646">
        <ele>32.955712</ele>
        <time>2022-01-19T12:01:46.414Z</time>
      </trkpt>
      <trkpt lat="36.51436" lon="30.52509">
        <ele>32.660632</ele>
        <time>2022-01-19T12:02:45.427Z</time>
      </trkpt>
      <trkpt lat="36.51224" lon="30.52401">
        <ele>37.633093</ele>
        <time>2022-01-19T12:03:44.422Z</time>
      </trkpt>
      <trkpt lat="36.51015" lon="30.52327">
        <ele>41.821377</ele>
        <time>2022-01-19T12:04:42.423Z</time>
      </trkpt>
      <trkpt lat="36.50824" lon="30.52269">
        <ele>48.586994</ele>
        <time>2022-01-19T12:06:19.422Z</time>
      </trkpt>
      <trkpt lat="36.50662" lon="30.52191">
        <ele>50.660039</ele>
        <time>2022-01-19T12:07:35.470Z</time>
      </trkpt>
      <trkpt lat="36.50464" lon="30.5232">
        <ele>46.676914</ele>
        <time>2022-01-19T12:08:32.430Z</time>
      </trkpt>
      <trkpt lat="36.50272" lon="30.52318">
        <ele>41.991438</ele>
        <time>2022-01-19T12:09:30.431Z</time>
      </trkpt>
      <trkpt lat="36.50184" lon="30.52313">
        <ele>41.991438</ele>
        <time>2022-01-19T12:11:11.729Z</time>
      </trkpt>
    </trkseg>
  </trk>
</gpx>